Time;durP1;ratioP1;P1;durP2;ratioP2;P2;SDS_P1;SDS_P2;PMS_P1;PMS_P2;Temp;Humidity;BMP_temperature;BMP_pressure;BME280_temperature;BME280_humidity;BME280_pressure;Samples;Min_cycle;Max_cycle;Signal;HPM_P1;HPM_P2
2022/05/19 00:01:01;;;;;;;25.38;16.25;;;;;;;;;;5077418;28;20592;-78
2022/05/19 00:03:28;;;;;;;26.17;17.80;;;;;;;;;;5077454;28;20080;-75
2022/05/19 00:05:54;;;;;;;24.40;17.30;;;;;;;;;;5079133;28;20032;-75
2022/05/19 00:08:20;;;;;;;24.35;17.73;;;;;;;;;;5077531;28;20036;-77
2022/05/19 00:10:47;;;;;;;26.80;17.27;;;;;;;;;;5051268;28;20461;-76
2022/05/19 00:13:13;;;;;;;31.85;18.35;;;;;;;;;;5077273;28;20024;-78
2022/05/19 00:15:39;;;;;;;28.30;18.00;;;;;;;;;;5076061;28;20556;-75
2022/05/19 00:18:05;;;;;;;30.75;18.40;;;;;;;;;;5082153;28;20043;-76
2022/05/19 00:20:31;;;;;;;26.55;18.83;;;;;;;;;;5072416;28;20508;-75
2022/05/19 00:22:57;;;;;;;29.15;18.40;;;;;;;;;;5078218;28;20036;-74
2022/05/19 00:25:23;;;;;;;29.08;18.80;;;;;;;;;;5074719;28;20028;-75
2022/05/19 00:27:49;;;;;;;32.15;19.67;;;;;;;;;;5081310;28;20044;-75
2022/05/19 00:30:15;;;;;;;26.65;20.20;;;;;;;;;;5083154;28;20036;-76
2022/05/19 00:32:41;;;;;;;26.75;19.20;;;;;;;;;;5082840;28;20040;-77
2022/05/19 00:35:08;;;;;;;32.08;20.25;;;;;;;;;;5077546;28;20036;-77
2022/05/19 00:37:34;;;;;;;25.05;19.70;;;;;;;;;;5082281;28;20024;-76
2022/05/19 00:40:00;;;;;;;29.20;20.10;;;;;;;;;;5074360;28;20044;-75
2022/05/19 00:42:44;;;;;;;28.08;20.38;;;;;;;;;;5081712;28;20067;-76
2022/05/19 00:45:11;;;;;;;27.15;20.00;;;;;;;;;;5078681;28;20176;-76
2022/05/19 00:47:47;;;;;;;34.97;21.58;;;;;;;;;;5081150;28;20020;-75
2022/05/19 00:50:19;;;;;;;30.27;20.67;;;;;;;;;;5081160;28;20127;-76
2022/05/19 00:52:46;;;;;;;29.83;19.85;;;;;;;;;;5077266;28;20114;-76
2022/05/19 00:55:19;;;;;;;27.17;20.55;;;;;;;;;;5080271;28;20124;-75
2022/05/19 00:57:47;;;;;;;31.20;20.33;;;;;;;;;;5084416;28;20085;-77
2022/05/19 01:00:15;;;;;;;32.67;20.50;;;;;;;;;;5083042;28;20020;-76
2022/05/19 01:02:43;;;;;;;35.72;21.55;;;;;;;;;;5080986;28;20032;-76
2022/05/19 01:05:09;;;;;;;35.60;21.60;;;;;;;;;;5076883;28;20607;-75
2022/05/19 01:07:42;;;;;;;36.17;21.05;;;;;;;;;;5081171;28;20103;-76
2022/05/19 01:10:09;;;;;;;29.42;20.58;;;;;;;;;;5082742;28;20035;-75
2022/05/19 01:12:37;;;;;;;27.98;20.73;;;;;;;;;;5079922;28;20055;-76
2022/05/19 01:15:04;;;;;;;34.38;21.35;;;;;;;;;;5077527;28;20036;-75
2022/05/19 01:17:31;;;;;;;29.98;20.55;;;;;;;;;;5080254;28;20025;-75
2022/05/19 01:20:00;;;;;;;33.13;21.38;;;;;;;;;;5080707;28;20085;-76
2022/05/19 01:22:36;;;;;;;31.80;20.67;;;;;;;;;;5079889;28;20032;-76
2022/05/19 01:25:06;;;;;;;32.70;21.23;;;;;;;;;;5075861;28;20047;-76
2022/05/19 01:27:32;;;;;;;29.95;21.00;;;;;;;;;;5078074;28;20028;-77
2022/05/19 01:29:58;;;;;;;34.08;21.42;;;;;;;;;;5081316;28;20047;-75
2022/05/19 01:32:28;;;;;;;31.30;22.45;;;;;;;;;;5084630;28;20036;-77
2022/05/19 01:34:55;;;;;;;28.55;21.33;;;;;;;;;;5076630;28;20043;-76
2022/05/19 01:37:21;;;;;;;35.25;22.92;;;;;;;;;;5080955;28;20553;-77
2022/05/19 01:39:59;;;;;;;35.05;22.52;;;;;;;;;;5079795;28;20052;-75
2022/05/19 01:42:44;;;;;;;30.10;22.35;;;;;;;;;;5079778;28;20028;-76
2022/05/19 01:45:13;;;;;;;36.08;23.23;;;;;;;;;;5078937;28;20035;-77
2022/05/19 01:47:42;;;;;;;29.75;22.75;;;;;;;;;;5077056;28;20039;-76
2022/05/19 01:50:14;;;;;;;35.25;23.52;;;;;;;;;;5082679;28;20442;-77
2022/05/19 01:53:02;;;;;;;34.08;23.77;;;;;;;;;;5078430;28;20040;-79
2022/05/19 01:55:43;;;;;;;31.23;23.92;;;;;;;;;;5079270;28;20099;-77
2022/05/19 01:58:22;;;;;;;35.92;24.95;;;;;;;;;;5078200;28;20480;-77
2022/05/19 02:00:49;;;;;;;37.50;25.67;;;;;;;;;;5082065;28;20031;-77
2022/05/19 02:03:34;;;;;;;41.00;26.85;;;;;;;;;;5079147;28;20767;-77
2022/05/19 02:06:11;;;;;;;43.67;28.25;;;;;;;;;;5078153;28;20044;-75
2022/05/19 02:09:15;;;;;;;44.42;28.13;;;;;;;;;;5078780;28;20032;-75
2022/05/19 02:11:46;;;;;;;40.88;27.15;;;;;;;;;;5000590;28;20068;-75
2022/05/19 02:14:14;;;;;;;42.97;27.85;;;;;;;;;;5066937;28;20120;-77
2022/05/19 02:16:42;;;;;;;38.70;27.15;;;;;;;;;;5076328;28;20083;-76
2022/05/19 02:19:09;;;;;;;45.40;29.15;;;;;;;;;;5078281;28;20052;-74
2022/05/19 02:21:35;;;;;;;38.20;27.83;;;;;;;;;;5078396;28;20102;-77
2022/05/19 02:24:02;;;;;;;42.92;28.25;;;;;;;;;;5078520;28;20090;-75
2022/05/19 02:26:34;;;;;;;47.45;28.00;;;;;;;;;;5082410;28;20032;-75
2022/05/19 02:29:06;;;;;;;42.65;27.70;;;;;;;;;;5078278;28;20020;-77
2022/05/19 02:31:32;;;;;;;37.95;27.65;;;;;;;;;;5082483;28;20034;-76
2022/05/19 02:33:58;;;;;;;42.92;28.73;;;;;;;;;;5074654;28;20034;-76
2022/05/19 02:36:24;;;;;;;43.42;28.90;;;;;;;;;;5078873;28;20275;-76
2022/05/19 02:38:50;;;;;;;46.35;29.63;;;;;;;;;;5080938;28;20028;-75
2022/05/19 02:41:17;;;;;;;41.05;28.88;;;;;;;;;;5077493;28;20040;-75
2022/05/19 02:43:43;;;;;;;45.47;29.02;;;;;;;;;;5080276;28;20032;-77
2022/05/19 02:46:09;;;;;;;44.63;28.83;;;;;;;;;;5081627;28;20028;-75
2022/05/19 02:48:35;;;;;;;41.92;29.17;;;;;;;;;;5083766;28;20024;-76
2022/05/19 02:51:01;;;;;;;41.45;26.85;;;;;;;;;;5080563;28;20031;-77
2022/05/19 02:53:27;;;;;;;40.90;27.92;;;;;;;;;;5076515;28;20044;-73
2022/05/19 02:55:53;;;;;;;59.70;26.63;;;;;;;;;;5079325;28;20051;-72
2022/05/19 02:58:19;;;;;;;44.63;27.08;;;;;;;;;;5077945;28;20023;-70
2022/05/19 03:00:47;;;;;;;51.45;32.45;;;;;;;;;;5081105;28;20024;-71
2022/05/19 03:03:13;;;;;;;51.97;33.28;;;;;;;;;;5073444;28;20016;-69
2022/05/19 03:05:39;;;;;;;50.47;35.03;;;;;;;;;;5078049;28;20040;-70
2022/05/19 03:08:06;;;;;;;67.88;40.03;;;;;;;;;;5073847;28;20032;-71
2022/05/19 03:10:32;;;;;;;56.92;37.53;;;;;;;;;;5078344;28;20036;-70
2022/05/19 03:12:58;;;;;;;57.13;37.20;;;;;;;;;;5074326;28;20376;-68
2022/05/19 03:15:24;;;;;;;61.55;35.13;;;;;;;;;;5080011;28;20085;-70
2022/05/19 03:17:50;;;;;;;32.72;19.08;;;;;;;;;;5073287;28;20036;-68
2022/05/19 03:20:17;;;;;;;29.40;16.25;;;;;;;;;;5074979;28;20390;-68
2022/05/19 03:22:43;;;;;;;19.13;13.63;;;;;;;;;;5077818;28;20489;-68
2022/05/19 03:25:10;;;;;;;18.60;9.63;;;;;;;;;;5077917;28;20028;-69
2022/05/19 03:27:37;;;;;;;17.75;6.85;;;;;;;;;;5075288;28;20028;-70
2022/05/19 03:30:04;;;;;;;11.00;4.53;;;;;;;;;;5075063;28;20696;-70
2022/05/19 03:32:31;;;;;;;11.10;4.05;;;;;;;;;;5079795;28;20059;-69
2022/05/19 03:34:57;;;;;;;8.68;3.13;;;;;;;;;;5080054;28;20039;-70
2022/05/19 03:37:23;;;;;;;9.82;3.20;;;;;;;;;;5079446;28;20032;-70
2022/05/19 03:39:49;;;;;;;5.50;2.97;;;;;;;;;;5077170;28;20038;-69
2022/05/19 03:42:15;;;;;;;6.75;2.90;;;;;;;;;;5077827;28;20032;-70
2022/05/19 03:44:41;;;;;;;7.28;3.17;;;;;;;;;;5080646;28;20101;-70
2022/05/19 03:47:08;;;;;;;7.20;3.58;;;;;;;;;;5078549;28;20101;-71
2022/05/19 03:49:34;;;;;;;6.05;3.40;;;;;;;;;;5078714;28;20523;-69
2022/05/19 03:52:00;;;;;;;7.88;3.08;;;;;;;;;;5081458;28;20064;-69
2022/05/19 03:54:26;;;;;;;7.90;3.50;;;;;;;;;;5077873;28;20119;-70
2022/05/19 03:56:52;;;;;;;10.80;4.07;;;;;;;;;;5072177;28;20075;-71
2022/05/19 03:59:19;;;;;;;7.05;4.32;;;;;;;;;;5078955;28;20031;-71
2022/05/19 04:01:45;;;;;;;6.72;3.92;;;;;;;;;;5079385;28;20029;-71
2022/05/19 04:04:11;;;;;;;7.82;4.20;;;;;;;;;;5080280;28;20044;-70
2022/05/19 04:06:37;;;;;;;7.38;4.18;;;;;;;;;;5082672;28;20036;-70
2022/05/19 04:09:04;;;;;;;10.27;4.63;;;;;;;;;;5082843;28;20031;-70
2022/05/19 04:11:30;;;;;;;7.90;4.57;;;;;;;;;;5083824;28;20148;-71
2022/05/19 04:13:56;;;;;;;18.40;4.90;;;;;;;;;;5081836;28;20040;-70
2022/05/19 04:16:22;;;;;;;6.53;4.18;;;;;;;;;;5078713;28;20025;-70
2022/05/19 04:18:48;;;;;;;7.68;4.57;;;;;;;;;;5081552;28;20046;-70
2022/05/19 04:21:14;;;;;;;8.23;5.53;;;;;;;;;;5083321;28;20081;-71
2022/05/19 04:23:40;;;;;;;11.63;4.90;;;;;;;;;;5084630;28;20032;-70
2022/05/19 04:26:06;;;;;;;8.57;5.18;;;;;;;;;;5081568;28;20039;-71
2022/05/19 04:28:32;;;;;;;9.10;5.65;;;;;;;;;;5083290;28;20187;-71
2022/05/19 04:31:00;;;;;;;8.32;5.40;;;;;;;;;;5083118;28;20139;-70
2022/05/19 04:33:26;;;;;;;10.45;6.10;;;;;;;;;;5080448;28;20040;-70
2022/05/19 04:35:52;;;;;;;12.32;6.90;;;;;;;;;;5083531;28;21609;-71
2022/05/19 04:38:19;;;;;;;8.15;5.70;;;;;;;;;;5081805;28;20105;-70
2022/05/19 04:40:48;;;;;;;13.73;6.50;;;;;;;;;;5076812;28;20066;-70
2022/05/19 04:43:21;;;;;;;10.88;6.40;;;;;;;;;;5078001;28;20035;-71
2022/05/19 04:45:51;;;;;;;9.52;6.63;;;;;;;;;;5076021;28;20162;-71
2022/05/19 04:48:17;;;;;;;10.23;7.10;;;;;;;;;;5078822;28;20028;-70
2022/05/19 04:50:44;;;;;;;17.77;7.20;;;;;;;;;;5083718;28;20520;-70
2022/05/19 04:53:10;;;;;;;11.32;7.57;;;;;;;;;;5080456;28;20024;-70
2022/05/19 04:55:37;;;;;;;10.32;7.65;;;;;;;;;;5081454;28;20032;-71
2022/05/19 04:58:04;;;;;;;12.77;7.85;;;;;;;;;;5081161;28;20115;-70
2022/05/19 05:00:30;;;;;;;14.55;8.85;;;;;;;;;;5079063;28;20137;-70
2022/05/19 05:02:56;;;;;;;12.55;8.55;;;;;;;;;;5084530;28;20306;-71
2022/05/19 05:05:23;;;;;;;10.43;8.23;;;;;;;;;;5080658;28;20107;-70
2022/05/19 05:07:49;;;;;;;16.73;10.98;;;;;;;;;;5085686;28;20438;-78
2022/05/19 05:10:15;;;;;;;11.07;8.70;;;;;;;;;;5085179;28;20039;-77
2022/05/19 05:12:41;;;;;;;16.25;9.75;;;;;;;;;;5082999;28;20040;-77
2022/05/19 05:15:07;;;;;;;14.02;9.05;;;;;;;;;;5081372;28;20111;-77
2022/05/19 05:17:33;;;;;;;13.80;8.50;;;;;;;;;;5067679;28;20040;-79
2022/05/19 05:19:59;;;;;;;11.88;8.48;;;;;;;;;;5082651;28;20035;-77
2022/05/19 05:22:25;;;;;;;15.35;9.07;;;;;;;;;;5081317;28;20032;-76
2022/05/19 05:24:51;;;;;;;16.13;8.98;;;;;;;;;;5063326;28;20063;-78
2022/05/19 05:27:17;;;;;;;12.88;9.75;;;;;;;;;;5083700;28;20094;-79
2022/05/19 05:29:43;;;;;;;14.48;10.07;;;;;;;;;;5080089;28;20024;-78
2022/05/19 05:32:09;;;;;;;18.85;10.57;;;;;;;;;;5080534;28;20043;-78
2022/05/19 05:34:35;;;;;;;14.75;10.27;;;;;;;;;;5078423;28;20059;-79
2022/05/19 05:37:04;;;;;;;13.45;10.63;;;;;;;;;;5082907;28;20028;-79
2022/05/19 05:39:30;;;;;;;13.98;10.05;;;;;;;;;;5075789;28;20040;-78
2022/05/19 05:41:56;;;;;;;14.18;10.90;;;;;;;;;;5085995;28;20033;-78
2022/05/19 05:44:22;;;;;;;13.10;9.23;;;;;;;;;;5081920;28;20029;-79
2022/05/19 05:46:48;;;;;;;13.38;10.00;;;;;;;;;;5080564;28;20042;-77
2022/05/19 05:49:14;;;;;;;13.07;10.50;;;;;;;;;;5079481;28;20039;-77
2022/05/19 05:51:40;;;;;;;13.48;9.38;;;;;;;;;;5079954;28;20047;-77
2022/05/19 05:54:06;;;;;;;12.35;8.98;;;;;;;;;;5080960;28;21551;-78
2022/05/19 05:56:32;;;;;;;11.00;9.55;;;;;;;;;;5080734;28;20043;-78
2022/05/19 05:58:58;;;;;;;11.07;9.30;;;;;;;;;;5075569;28;20048;-78
2022/05/19 06:01:24;;;;;;;14.07;9.18;;;;;;;;;;5077045;28;20693;-78
2022/05/19 06:03:50;;;;;;;13.73;9.00;;;;;;;;;;5082345;28;20528;-78
2022/05/19 06:06:17;;;;;;;11.95;9.00;;;;;;;;;;5080072;28;20115;-79
2022/05/19 06:08:43;;;;;;;14.02;8.93;;;;;;;;;;5082850;28;20028;-78
2022/05/19 06:11:09;;;;;;;14.68;9.60;;;;;;;;;;5082834;28;20072;-78
2022/05/19 06:13:36;;;;;;;13.85;9.15;;;;;;;;;;5059605;28;20039;-78
2022/05/19 06:16:02;;;;;;;16.10;9.25;;;;;;;;;;5079603;28;20226;-79
2022/05/19 06:18:28;;;;;;;13.95;9.68;;;;;;;;;;5081260;28;20552;-78
2022/05/19 06:20:54;;;;;;;15.95;9.63;;;;;;;;;;5081344;28;20036;-78
2022/05/19 06:23:21;;;;;;;13.45;8.80;;;;;;;;;;5085773;28;20040;-77
2022/05/19 06:25:47;;;;;;;18.13;9.35;;;;;;;;;;5081018;28;20759;-78
2022/05/19 06:28:13;;;;;;;12.63;8.15;;;;;;;;;;5084881;28;20031;-79
2022/05/19 06:30:39;;;;;;;12.50;7.88;;;;;;;;;;5082575;28;20036;-79
2022/05/19 06:33:06;;;;;;;9.18;7.05;;;;;;;;;;5069435;28;20140;-78
2022/05/19 06:35:32;;;;;;;11.60;7.07;;;;;;;;;;5082663;28;20162;-79
2022/05/19 06:37:59;;;;;;;13.70;7.20;;;;;;;;;;5080778;28;20027;-78
2022/05/19 06:40:26;;;;;;;11.80;7.25;;;;;;;;;;5084920;28;20074;-78
2022/05/19 06:42:52;;;;;;;13.60;7.65;;;;;;;;;;5085390;28;20024;-79
2022/05/19 06:45:20;;;;;;;11.50;6.72;;;;;;;;;;5093487;28;20032;-79
2022/05/19 06:47:47;;;;;;;10.85;7.18;;;;;;;;;;5079803;28;20044;-79
2022/05/19 06:50:13;;;;;;;11.25;6.93;;;;;;;;;;5082495;28;20039;-79
2022/05/19 06:52:44;;;;;;;12.60;8.75;;;;;;;;;;5082994;28;20047;-79
2022/05/19 06:55:10;;;;;;;13.75;8.55;;;;;;;;;;5084616;28;20035;-79
2022/05/19 06:57:36;;;;;;;15.95;8.43;;;;;;;;;;5094389;28;20051;-79
2022/05/19 07:00:03;;;;;;;10.55;8.90;;;;;;;;;;5075640;28;20032;-80
2022/05/19 07:02:29;;;;;;;15.35;8.93;;;;;;;;;;5085640;28;20031;-78
2022/05/19 07:04:55;;;;;;;10.02;7.45;;;;;;;;;;5084149;28;20058;-78
2022/05/19 07:07:21;;;;;;;12.52;8.00;;;;;;;;;;5085105;28;20036;-78
2022/05/19 07:09:47;;;;;;;10.90;8.15;;;;;;;;;;5090335;28;20566;-79
2022/05/19 07:12:20;;;;;;;16.27;8.23;;;;;;;;;;5085009;28;20489;-78
2022/05/19 07:14:46;;;;;;;14.98;8.48;;;;;;;;;;5085573;28;20036;-79
2022/05/19 07:17:13;;;;;;;12.05;8.15;;;;;;;;;;5079384;28;20086;-79
2022/05/19 07:22:24;;;;;;;9.90;7.32;;;;;;;;;;5086090;28;20076;-79
2022/05/19 07:24:51;;;;;;;14.02;7.30;;;;;;;;;;5081685;28;20052;-79
2022/05/19 07:27:17;;;;;;;13.88;7.47;;;;;;;;;;5086147;28;20039;-78
2022/05/19 07:29:43;;;;;;;10.73;7.30;;;;;;;;;;5088419;28;20081;-79
2022/05/19 07:32:09;;;;;;;12.32;7.88;;;;;;;;;;5088204;28;20032;-79
2022/05/19 07:34:37;;;;;;;10.50;7.38;;;;;;;;;;5085533;28;20111;-79
2022/05/19 07:37:03;;;;;;;14.68;8.30;;;;;;;;;;5082251;28;20103;-79
2022/05/19 07:39:29;;;;;;;14.88;7.10;;;;;;;;;;5089082;28;20020;-79
2022/05/19 07:41:55;;;;;;;15.35;6.72;;;;;;;;;;5086310;28;20295;-80
2022/05/19 07:44:23;;;;;;;9.60;6.47;;;;;;;;;;5088735;28;20028;-79
2022/05/19 07:46:49;;;;;;;8.93;6.68;;;;;;;;;;5087046;28;20028;-80
2022/05/19 07:49:15;;;;;;;10.73;6.50;;;;;;;;;;5091171;28;20035;-80
2022/05/19 07:51:41;;;;;;;9.45;6.35;;;;;;;;;;5089342;28;20272;-81
2022/05/19 07:54:12;;;;;;;12.57;6.40;;;;;;;;;;5082856;28;20023;-79
2022/05/19 07:56:38;;;;;;;;;;;;;;;;;;5088343;28;20032;-80
2022/05/19 07:59:04;;;;;;;8.38;5.82;;;;;;;;;;5086760;28;19915;-80
2022/05/19 08:01:31;;;;;;;8.40;6.13;;;;;;;;;;5090129;28;20488;-79
2022/05/19 08:03:57;;;;;;;13.00;6.60;;;;;;;;;;5089066;28;20032;-79
2022/05/19 08:06:23;;;;;;;24.02;6.68;;;;;;;;;;5085827;28;20028;-79
2022/05/19 08:08:50;;;;;;;7.03;5.47;;;;;;;;;;5088426;28;20105;-78
2022/05/19 08:11:16;;;;;;;7.95;5.70;;;;;;;;;;5084960;28;20075;-79
2022/05/19 08:16:26;;;;;;;10.98;5.55;;;;;;;;;;5088325;28;20120;-80
2022/05/19 08:18:52;;;;;;;7.65;5.05;;;;;;;;;;5097020;28;20028;-80
2022/05/19 08:21:19;;;;;;;7.97;5.45;;;;;;;;;;5089001;28;20077;-79
2022/05/19 08:23:47;;;;;;;7.03;5.20;;;;;;;;;;5091931;28;20560;-79
2022/05/19 08:26:13;;;;;;;9.27;5.40;;;;;;;;;;5084112;28;20492;-80
2022/05/19 08:28:40;;;;;;;18.42;5.95;;;;;;;;;;5088335;28;20048;-79
2022/05/19 08:31:11;;;;;;;10.07;5.35;;;;;;;;;;5087481;28;20093;-80
2022/05/19 08:33:37;;;;;;;;;;;;;;;;;;5084731;28;20066;-79
2022/05/19 08:36:04;;;;;;;12.25;5.75;;;;;;;;;;5090011;28;20023;-80
2022/05/19 08:38:30;;;;;;;8.35;5.68;;;;;;;;;;5093433;28;20055;-80
2022/05/19 08:41:00;;;;;;;7.72;5.40;;;;;;;;;;5093597;28;20031;-80
2022/05/19 08:43:31;;;;;;;10.50;5.25;;;;;;;;;;5090509;28;20028;-80
2022/05/19 08:46:00;;;;;;;8.57;5.10;;;;;;;;;;5083825;28;20044;-79
2022/05/19 08:48:27;;;;;;;7.00;5.10;;;;;;;;;;5085171;28;20067;-79
2022/05/19 08:50:58;;;;;;;10.20;5.35;;;;;;;;;;5086448;28;20039;-81
2022/05/19 08:53:29;;;;;;;9.00;4.78;;;;;;;;;;5083945;28;20032;-79
2022/05/19 08:56:00;;;;;;;8.30;4.60;;;;;;;;;;5077352;28;20110;-80
2022/05/19 08:58:27;;;;;;;;;;;;;;;;;;5093055;28;20101;-81
2022/05/19 09:00:56;;;;;;;7.07;4.93;;;;;;;;;;5092891;28;19918;-81
2022/05/19 09:03:31;;;;;;;7.75;5.78;;;;;;;;;;5086161;28;20028;-81
2022/05/19 09:05:57;;;;;;;9.80;5.88;;;;;;;;;;5082037;28;20039;-81
2022/05/19 09:08:49;;;;;;;9.73;5.72;;;;;;;;;;5093253;28;20419;-81
2022/05/19 09:11:22;;;;;;;6.90;5.43;;;;;;;;;;5086196;28;20465;-82
2022/05/19 09:13:51;;;;;;;14.07;6.00;;;;;;;;;;5084154;28;20051;-80
2022/05/19 09:16:25;;;;;;;10.50;7.03;;;;;;;;;;5084008;28;20070;-81
2022/05/19 09:18:55;;;;;;;7.70;6.72;;;;;;;;;;5092752;28;20034;-82
2022/05/19 09:21:21;;;;;;;9.65;6.63;;;;;;;;;;5083702;28;20028;-82
2022/05/19 09:23:48;;;;;;;8.70;6.00;;;;;;;;;;5090073;28;20036;-82
2022/05/19 09:26:20;;;;;;;7.10;6.03;;;;;;;;;;5090171;28;20035;-81
2022/05/19 09:28:46;;;;;;;12.93;6.75;;;;;;;;;;5091443;28;20028;-81
2022/05/19 09:31:13;;;;;;;10.77;5.80;;;;;;;;;;5085529;28;20035;-80
2022/05/19 09:33:47;;;;;;;10.23;6.07;;;;;;;;;;5092882;28;20452;-81
2022/05/19 09:36:14;;;;;;;9.13;5.60;;;;;;;;;;5087030;28;20043;-79
2022/05/19 09:38:50;;;;;;;8.75;5.00;;;;;;;;;;5089141;28;20164;-82
2022/05/19 09:41:43;;;;;;;6.68;4.38;;;;;;;;;;5088436;28;20075;-81
2022/05/19 09:44:13;;;;;;;8.43;4.85;;;;;;;;;;5081214;28;20116;-82
2022/05/19 09:46:41;;;;;;;10.45;4.85;;;;;;;;;;5091242;28;20032;-80
2022/05/19 09:49:25;;;;;;;7.75;4.20;;;;;;;;;;5087496;28;20081;-81
2022/05/19 09:51:52;;;;;;;6.20;4.93;;;;;;;;;;5084720;28;20103;-82
2022/05/19 09:54:18;;;;;;;7.03;5.00;;;;;;;;;;5088532;28;20035;-81
2022/05/19 09:56:54;;;;;;;6.75;4.80;;;;;;;;;;5090406;28;20073;-82
2022/05/19 09:59:22;;;;;;;6.80;4.50;;;;;;;;;;5084863;28;20036;-83
2022/05/19 10:01:49;;;;;;;8.75;4.53;;;;;;;;;;5088040;28;20028;-81
2022/05/19 10:04:25;;;;;;;6.85;4.50;;;;;;;;;;5083690;28;20028;-84
2022/05/19 10:06:56;;;;;;;6.30;4.55;;;;;;;;;;5085149;28;20122;-83
2022/05/19 10:09:32;;;;;;;11.13;5.10;;;;;;;;;;5089127;28;20031;-81
2022/05/19 10:12:05;;;;;;;8.77;4.95;;;;;;;;;;5085376;28;20086;-82
2022/05/19 10:14:32;;;;;;;8.13;5.20;;;;;;;;;;5095195;28;20047;-84
2022/05/19 10:17:05;;;;;;;8.93;4.93;;;;;;;;;;5090839;28;20054;-83
2022/05/19 10:19:35;;;;;;;7.22;4.28;;;;;;;;;;5094848;28;20033;-84
2022/05/19 10:22:19;;;;;;;5.93;3.53;;;;;;;;;;5082409;28;20036;-84
2022/05/19 10:24:51;;;;;;;6.75;3.60;;;;;;;;;;5081191;28;20024;-85
2022/05/19 10:33:19;;;;;;;6.45;4.53;;;;;;;;;;5088425;28;20047;-84
2022/05/19 10:36:01;;;;;;;8.40;5.38;;;;;;;;;;5081151;28;20482;-83
2022/05/19 10:39:06;;;;;;;8.80;6.20;;;;;;;;;;5086851;28;20019;-83
2022/05/19 10:41:47;;;;;;;6.72;5.32;;;;;;;;;;5042782;28;20119;-85
2022/05/19 10:44:28;;;;;;;7.70;5.78;;;;;;;;;;5044524;28;20024;-82
2022/05/19 10:47:05;;;;;;;8.10;6.15;;;;;;;;;;5077488;28;20036;-83
2022/05/19 10:49:31;;;;;;;10.45;6.10;;;;;;;;;;5099783;28;20050;-84
2022/05/19 10:51:57;;;;;;;7.88;6.45;;;;;;;;;;5092930;28;20020;-84
2022/05/19 10:54:59;;;;;;;8.13;6.90;;;;;;;;;;5093244;28;20080;-82
2022/05/19 10:57:28;;;;;;;12.13;6.70;;;;;;;;;;5023922;28;20612;-81
2022/05/19 11:00:15;;;;;;;9.90;6.88;;;;;;;;;;5082084;28;20063;-83
2022/05/19 11:02:45;;;;;;;12.32;7.43;;;;;;;;;;5087646;28;20447;-81
2022/05/19 11:05:27;;;;;;;10.48;6.90;;;;;;;;;;5092959;28;20031;-83
2022/05/19 11:08:09;;;;;;;10.90;7.25;;;;;;;;;;5081986;28;20031;-72
2022/05/19 11:10:44;;;;;;;11.55;7.50;;;;;;;;;;5084153;28;20028;-71
2022/05/19 11:13:13;;;;;;;11.68;8.05;;;;;;;;;;5090644;28;20073;-72
2022/05/19 11:16:11;;;;;;;11.02;7.90;;;;;;;;;;5082453;28;20027;-73
2022/05/19 11:18:40;;;;;;;9.98;8.13;;;;;;;;;;5045759;28;20089;-73
2022/05/19 11:21:14;;;;;;;12.68;9.55;;;;;;;;;;5080420;28;20028;-71
2022/05/19 11:23:49;;;;;;;11.23;9.57;;;;;;;;;;5086317;28;20484;-72
2022/05/19 11:26:24;;;;;;;16.02;9.73;;;;;;;;;;5089910;28;20492;-73
2022/05/19 11:28:57;;;;;;;11.98;10.23;;;;;;;;;;5085497;28;20361;-72
2022/05/19 11:31:42;;;;;;;10.85;9.30;;;;;;;;;;5083223;28;20035;-73
2022/05/19 11:34:17;;;;;;;12.23;9.70;;;;;;;;;;5082859;28;20404;-73
2022/05/19 11:37:04;;;;;;;19.30;10.73;;;;;;;;;;5079257;28;20072;-70
2022/05/19 11:39:36;;;;;;;45.17;18.08;;;;;;;;;;5075122;28;20032;-70
2022/05/19 11:42:18;;;;;;;85.35;21.20;;;;;;;;;;5079342;28;20550;-70
2022/05/19 11:44:46;;;;;;;78.65;6.10;;;;;;;;;;5087858;28;20021;-71
2022/05/19 11:55:11;;;;;;;79.15;13.00;;;;;;;;;;5086672;28;20028;-71
2022/05/19 11:55:49;;;;;;;83.28;46.08;;;;;;;;;;5087323;28;20043;-70
2022/05/19 11:58:20;;;;;;;95.93;50.85;;;;;;;;;;5084834;28;20020;-70
2022/05/19 12:00:56;;;;;;;59.30;41.40;;;;;;;;;;5083382;28;20527;-70
2022/05/19 12:03:40;;;;;;;85.93;50.80;;;;;;;;;;5081053;28;20024;-70
2022/05/19 12:06:12;;;;;;;76.32;47.35;;;;;;;;;;5078328;28;20066;-70
2022/05/19 12:08:41;;;;;;;121.88;59.55;;;;;;;;;;5081547;28;20062;-71
2022/05/19 12:11:26;;;;;;;78.70;51.00;;;;;;;;;;5081711;28;20127;-72
2022/05/19 12:14:06;;;;;;;90.82;59.75;;;;;;;;;;5085334;28;20032;-72
2022/05/19 12:16:58;;;;;;;86.40;58.33;;;;;;;;;;5080029;28;20028;-71
2022/05/19 12:19:32;;;;;;;167.38;84.18;;;;;;;;;;5077256;28;20044;-71
2022/05/19 12:21:58;;;;;;;159.27;79.43;;;;;;;;;;5080162;28;20020;-72
2022/05/19 12:24:26;;;;;;;126.03;77.10;;;;;;;;;;5088017;28;20040;-70
2022/05/19 12:27:23;;;;;;;181.13;90.13;;;;;;;;;;5081461;28;20028;-71
2022/05/19 12:29:49;;;;;;;217.68;101.07;;;;;;;;;;5071091;28;20033;-71
2022/05/19 12:32:21;;;;;;;149.30;84.55;;;;;;;;;;5087021;28;20036;-70
2022/05/19 12:34:50;;;;;;;182.35;94.65;;;;;;;;;;5089629;27;20020;-71
2022/05/19 12:37:16;;;;;;;222.38;94.45;;;;;;;;;;5089897;28;20034;-72
2022/05/19 12:39:42;;;;;;;149.65;82.82;;;;;;;;;;5085873;28;20040;-72
2022/05/19 12:42:19;;;;;;;187.27;89.43;;;;;;;;;;5082523;28;20218;-72
2022/05/19 12:44:50;;;;;;;168.50;83.07;;;;;;;;;;5086524;28;20048;-72
2022/05/19 12:47:16;;;;;;;181.15;79.68;;;;;;;;;;5081905;28;20100;-73
2022/05/19 12:50:01;;;;;;;122.20;66.40;;;;;;;;;;5082135;28;20057;-71
2022/05/19 12:52:46;;;;;;;100.03;56.28;;;;;;;;;;5082598;28;20074;-71
2022/05/19 12:55:24;;;;;;;86.18;51.90;;;;;;;;;;5088015;28;20085;-71
2022/05/19 12:57:54;;;;;;;114.40;60.60;;;;;;;;;;5079524;28;20038;-71
2022/05/19 13:00:22;;;;;;;84.53;52.17;;;;;;;;;;5078474;28;20032;-70
2022/05/19 13:03:08;;;;;;;101.38;57.53;;;;;;;;;;5088535;28;20088;-70
2022/05/19 13:05:39;;;;;;;96.57;56.05;;;;;;;;;;5085159;28;20067;-71
2022/05/19 13:08:11;;;;;;;64.28;46.40;;;;;;;;;;5086356;28;20030;-70
2022/05/19 13:10:42;;;;;;;89.38;54.50;;;;;;;;;;5093130;28;20426;-71
2022/05/19 13:13:17;;;;;;;121.85;64.90;;;;;;;;;;5093751;28;20024;-70
2022/05/19 13:15:48;;;;;;;122.35;61.95;;;;;;;;;;5082338;28;20111;-71
2022/05/19 13:18:16;;;;;;;69.47;45.88;;;;;;;;;;5085521;28;20040;-71
2022/05/19 13:20:42;;;;;;;122.72;64.57;;;;;;;;;;5087026;28;20055;-71
2022/05/19 13:23:18;;;;;;;77.35;50.05;;;;;;;;;;5084756;28;20078;-73
2022/05/19 13:25:46;;;;;;;145.02;72.55;;;;;;;;;;5084374;28;20039;-77
2022/05/19 13:31:03;;;;;;;52.88;38.33;;;;;;;;;;5084958;28;20081;-76
2022/05/19 13:33:31;;;;;;;37.13;29.27;;;;;;;;;;5088327;28;20032;-77
2022/05/19 13:36:02;;;;;;;39.00;32.33;;;;;;;;;;5087495;28;20036;-79
2022/05/19 13:38:28;;;;;;;55.22;37.50;;;;;;;;;;5085411;28;20030;-73
2022/05/19 13:40:55;;;;;;;31.73;25.85;;;;;;;;;;5084068;28;20473;-76
2022/05/19 13:43:23;;;;;;;16.58;14.07;;;;;;;;;;5087114;28;20109;-76
2022/05/19 13:45:52;;;;;;;18.55;14.27;;;;;;;;;;5086885;28;20103;-76
2022/05/19 13:48:21;;;;;;;17.35;13.93;;;;;;;;;;5082713;28;20071;-76
2022/05/19 13:50:48;;;;;;;14.95;11.40;;;;;;;;;;5078397;28;20456;-78
2022/05/19 13:53:15;;;;;;;14.07;10.55;;;;;;;;;;5083403;28;20025;-76
2022/05/19 13:55:41;;;;;;;13.48;10.07;;;;;;;;;;5086349;28;20031;-76
2022/05/19 13:58:15;;;;;;;12.23;8.65;;;;;;;;;;5083825;28;20024;-75
2022/05/19 14:00:42;;;;;;;10.15;7.30;;;;;;;;;;5082343;28;20540;-76
2022/05/19 14:03:08;;;;;;;8.80;7.90;;;;;;;;;;5083740;28;20020;-75
2022/05/19 14:05:40;;;;;;;13.43;7.47;;;;;;;;;;5088221;28;20126;-76
2022/05/19 14:08:09;;;;;;;8.50;6.43;;;;;;;;;;5080798;28;20040;-75
2022/05/19 14:10:43;;;;;;;7.93;5.10;;;;;;;;;;5086292;28;20154;-76
2022/05/19 14:13:11;;;;;;;7.32;5.78;;;;;;;;;;5086841;28;20342;-76
2022/05/19 14:15:41;;;;;;;8.85;6.18;;;;;;;;;;5084850;28;20037;-76
2022/05/19 14:18:28;;;;;;;9.50;5.97;;;;;;;;;;5083087;28;20044;-77
2022/05/19 14:20:56;;;;;;;7.38;4.90;;;;;;;;;;5083503;28;20020;-77
2022/05/19 14:23:23;;;;;;;6.68;5.28;;;;;;;;;;5089033;28;20020;-78
2022/05/19 14:25:51;;;;;;;6.78;4.80;;;;;;;;;;5085317;28;20032;-78
2022/05/19 14:28:23;;;;;;;6.30;4.10;;;;;;;;;;5086344;28;20091;-79
2022/05/19 14:30:52;;;;;;;11.82;4.30;;;;;;;;;;5082701;28;20044;-79
2022/05/19 14:33:21;;;;;;;7.45;4.35;;;;;;;;;;5086040;28;20501;-79
2022/05/19 14:36:00;;;;;;;8.90;3.22;;;;;;;;;;5093776;28;20035;-79
2022/05/19 14:38:31;;;;;;;5.72;3.45;;;;;;;;;;5085721;28;20040;-80
2022/05/19 14:43:49;;;;;;;4.93;2.70;;;;;;;;;;5088974;28;20919;-79
2022/05/19 14:46:17;;;;;;;4.25;2.10;;;;;;;;;;5096041;28;20496;-81
2022/05/19 14:48:48;;;;;;;4.57;2.72;;;;;;;;;;5090468;28;20049;-80
2022/05/19 14:51:14;;;;;;;;;;;;;;;;;;5086978;28;20088;-80
2022/05/19 14:53:43;;;;;;;4.00;2.63;;;;;;;;;;5092273;28;19911;-80
2022/05/19 14:56:29;;;;;;;4.28;2.63;;;;;;;;;;5089755;28;20028;-80
2022/05/19 14:59:09;;;;;;;5.18;3.58;;;;;;;;;;5086467;28;20043;-80
2022/05/19 15:01:35;;;;;;;4.53;3.30;;;;;;;;;;5084300;28;20035;-80
2022/05/19 15:04:01;;;;;;;6.65;3.05;;;;;;;;;;5086865;28;20059;-80
2022/05/19 15:06:27;;;;;;;6.10;3.33;;;;;;;;;;5084372;28;20090;-78